Time;durP1;ratioP1;P1;durP2;ratioP2;P2;SDS_P1;SDS_P2;PMS_P1;PMS_P2;Temp;Humidity;BMP_temperature;BMP_pressure;BME280_temperature;BME280_humidity;BME280_pressure;Samples;Min_cycle;Max_cycle;Signal;HPM_P1;HPM_P2
2023/08/26 00:02:27;;;;;;;8.27;6.35;;;22.60;99.90;;;;;;2603749;54;20911;31
2023/08/26 00:05:04;;;;;;;8.63;6.25;;;22.60;99.90;;;;;;2603592;54;20112;31
2023/08/26 00:07:39;;;;;;;10.15;5.95;;;22.60;99.90;;;;;;2622216;46;20030;31
2023/08/26 00:10:14;;;;;;;9.05;6.40;;;22.50;99.90;;;;;;2622447;46;20027;31
2023/08/26 00:12:48;;;;;;;8.23;6.57;;;22.50;99.90;;;;;;2603666;54;20042;31
2023/08/26 00:15:23;;;;;;;6.43;5.47;;;22.50;99.90;;;;;;2603536;54;20927;31
2023/08/26 00:17:58;;;;;;;8.75;5.82;;;22.50;99.90;;;;;;2603559;54;20084;31
2023/08/26 00:20:35;;;;;;;11.45;7.15;;;22.40;99.90;;;;;;2621980;46;20042;31
2023/08/26 00:23:10;;;;;;;10.45;7.40;;;22.40;99.90;;;;;;2603581;54;20797;31
2023/08/26 00:25:45;;;;;;;11.30;6.72;;;22.40;99.90;;;;;;2603425;54;20027;31
2023/08/26 00:28:19;;;;;;;10.60;7.93;;;22.40;99.90;;;;;;2603804;54;20050;31
2023/08/26 00:30:59;;;;;;;9.02;6.80;;;22.30;99.90;;;;;;2603513;54;20775;31
2023/08/26 00:33:34;;;;;;;10.70;8.10;;;22.30;99.90;;;;;;2603634;54;20081;31
2023/08/26 00:36:11;;;;;;;10.02;7.60;;;22.30;99.90;;;;;;2603557;54;20026;31
2023/08/26 00:38:46;;;;;;;10.93;7.10;;;22.20;99.90;;;;;;2603495;54;20087;31
2023/08/26 00:41:21;;;;;;;6.93;5.97;;;22.10;99.90;;;;;;2603500;54;20085;31
2023/08/26 00:43:55;;;;;;;11.20;6.78;;;22.10;99.90;;;;;;2603746;54;20022;31
2023/08/26 00:46:29;;;;;;;10.23;7.03;;;22.10;99.90;;;;;;2603472;54;19935;31
2023/08/26 00:49:02;;;;;;;10.05;7.80;;;22.00;99.90;;;;;;2603394;54;20915;31
2023/08/26 00:51:39;;;;;;;9.02;7.47;;;22.00;99.90;;;;;;2603437;54;20037;31
2023/08/26 00:54:14;;;;;;;9.60;7.60;;;22.00;99.90;;;;;;2603653;54;20027;31
2023/08/26 00:56:48;;;;;;;13.37;7.87;;;21.90;99.90;;;;;;2603467;54;19956;31
2023/08/26 00:59:22;;;;;;;10.10;8.60;;;21.70;99.90;;;;;;2603553;54;20035;31
2023/08/26 01:01:56;;;;;;;10.38;7.70;;;21.70;99.90;;;;;;2603459;54;20898;31
2023/08/26 01:04:30;;;;;;;11.30;7.65;;;21.60;99.90;;;;;;2603516;54;20022;31
2023/08/26 01:07:07;;;;;;;11.88;8.30;;;21.60;99.90;;;;;;2603509;54;19938;31
2023/08/26 01:09:43;;;;;;;10.65;8.05;;;21.50;99.90;;;;;;2621991;46;20033;31
2023/08/26 01:12:20;;;;;;;10.13;7.65;;;21.50;99.90;;;;;;2621543;46;20045;31
2023/08/26 01:14:58;;;;;;;9.77;7.50;;;21.50;99.90;;;;;;2622032;46;20038;31
2023/08/26 01:17:32;;;;;;;12.97;8.73;;;21.50;99.90;;;;;;2621464;46;20045;31
2023/08/26 01:20:07;;;;;;;8.32;6.97;;;21.40;99.90;;;;;;2603519;54;20034;31
2023/08/26 01:22:42;;;;;;;;;;;21.40;99.90;;;;;;2702218;39;20996;31
2023/08/26 01:25:20;;;;;;;8.68;6.63;;;21.40;99.90;;;;;;2621937;46;19935;31
2023/08/26 01:27:56;;;;;;;7.68;6.55;;;21.30;99.90;;;;;;2603325;54;20031;31
2023/08/26 01:30:33;;;;;;;12.25;7.05;;;21.30;99.90;;;;;;2603524;54;20089;31
2023/08/26 01:33:17;;;;;;;10.07;7.60;;;21.30;99.90;;;;;;2603199;54;20000;31
2023/08/26 01:35:52;;;;;;;8.07;6.85;;;21.30;99.90;;;;;;2621662;46;20821;31
2023/08/26 01:38:27;;;;;;;12.30;6.70;;;21.20;99.90;;;;;;2603469;54;20023;31
2023/08/26 01:41:03;;;;;;;9.00;6.90;;;21.20;99.90;;;;;;2603526;54;20050;31
2023/08/26 01:43:38;;;;;;;6.90;5.80;;;21.20;99.90;;;;;;2603288;54;20072;31
2023/08/26 01:46:13;;;;;;;8.43;6.33;;;21.20;99.90;;;;;;2603668;54;20023;31
2023/08/26 01:48:48;;;;;;;8.57;7.68;;;21.20;99.90;;;;;;2603531;54;20033;31
2023/08/26 01:51:22;;;;;;;5.80;5.30;;;21.10;99.90;;;;;;2603444;54;20026;31
2023/08/26 01:53:57;;;;;;;9.52;7.82;;;21.10;99.90;;;;;;2602988;54;21152;31
2023/08/26 01:56:34;;;;;;;;;;;21.10;99.90;;;;;;2603461;54;20027;31
2023/08/26 01:59:09;;;;;;;12.05;8.80;;;21.00;99.90;;;;;;2603190;54;20788;31
2023/08/26 02:01:46;;;;;;;9.80;7.88;;;21.00;99.90;;;;;;2603266;54;20048;31
2023/08/26 02:04:21;;;;;;;11.05;8.55;;;21.00;99.90;;;;;;2621794;47;20708;31
2023/08/26 02:06:56;;;;;;;9.63;8.05;;;21.00;99.90;;;;;;2621722;47;20029;31
2023/08/26 02:09:31;;;;;;;12.25;9.10;;;21.00;99.90;;;;;;2603425;54;20030;31
2023/08/26 02:12:10;;;;;;;11.40;9.30;;;20.90;99.90;;;;;;2603267;54;20033;31
2023/08/26 02:14:44;;;;;;;12.60;9.15;;;20.90;99.90;;;;;;2621755;47;20026;31
2023/08/26 02:17:20;;;;;;;11.35;9.52;;;20.90;99.90;;;;;;2603307;54;20886;31
2023/08/26 02:19:55;;;;;;;10.73;8.88;;;20.90;99.90;;;;;;2603345;54;20112;31
2023/08/26 02:22:29;;;;;;;12.90;9.13;;;20.80;99.90;;;;;;2603293;54;20897;31
2023/08/26 02:25:03;;;;;;;11.88;10.15;;;20.80;99.90;;;;;;2603279;54;20084;31
2023/08/26 02:27:40;;;;;;;17.35;10.88;;;20.80;99.90;;;;;;2603109;54;20027;31
2023/08/26 02:30:15;;;;;;;14.05;8.65;;;20.80;99.90;;;;;;2603202;54;20053;31
2023/08/26 02:32:50;;;;;;;11.82;9.30;;;20.80;99.90;;;;;;2621803;47;20079;31
2023/08/26 02:35:25;;;;;;;14.23;8.38;;;20.80;99.90;;;;;;2603132;54;20832;31
2023/08/26 02:37:59;;;;;;;12.50;8.77;;;20.70;99.90;;;;;;2621703;47;20030;31
2023/08/26 02:40:34;;;;;;;9.73;5.70;;;20.70;99.90;;;;;;2603112;54;20865;31
2023/08/26 02:43:11;;;;;;;6.07;4.47;;;20.70;99.90;;;;;;2603201;54;20898;31
2023/08/26 02:45:48;;;;;;;6.72;3.95;;;20.70;99.90;;;;;;2603060;54;20361;31
2023/08/26 02:48:23;;;;;;;6.38;4.20;;;20.60;99.90;;;;;;2621347;47;20048;31
2023/08/26 02:50:58;;;;;;;5.45;3.60;;;20.60;99.90;;;;;;2603089;54;20038;31
2023/08/26 02:53:33;;;;;;;5.43;4.17;;;20.60;99.90;;;;;;2603095;54;20080;31
2023/08/26 02:56:08;;;;;;;5.45;3.53;;;20.60;99.90;;;;;;2621336;47;20889;31
2023/08/26 02:58:44;;;;;;;4.93;3.87;;;20.60;99.90;;;;;;2602815;54;20067;31
2023/08/26 03:01:19;;;;;;;7.20;4.15;;;20.50;99.90;;;;;;2621154;47;20069;31
2023/08/26 03:03:54;;;;;;;4.40;3.38;;;20.50;99.90;;;;;;2603058;54;19993;31
2023/08/26 03:06:29;;;;;;;4.60;3.80;;;20.40;99.90;;;;;;2603615;54;20023;31
2023/08/26 03:09:03;;;;;;;5.63;3.67;;;20.40;99.90;;;;;;2603929;54;21141;31
2023/08/26 03:11:38;;;;;;;7.17;4.23;;;20.40;99.90;;;;;;2603721;54;20034;31
2023/08/26 03:14:16;;;;;;;5.50;3.50;;;20.30;99.90;;;;;;2603790;54;20034;31
2023/08/26 03:16:51;;;;;;;6.40;3.95;;;20.40;99.90;;;;;;2603870;54;20022;31
2023/08/26 03:19:26;;;;;;;4.50;3.45;;;20.30;99.90;;;;;;2603945;54;20026;31
2023/08/26 03:22:01;;;;;;;4.93;3.90;;;20.30;99.90;;;;;;2603653;54;20037;31
2023/08/26 03:24:38;;;;;;;6.25;3.38;;;20.40;99.90;;;;;;2603617;54;20264;31
2023/08/26 03:27:13;;;;;;;6.10;3.75;;;20.30;99.90;;;;;;2603640;54;20879;31
2023/08/26 03:29:49;;;;;;;5.70;3.75;;;20.30;99.90;;;;;;2622525;46;20887;31
2023/08/26 03:32:24;;;;;;;7.05;4.80;;;20.30;99.90;;;;;;2603662;54;20903;31
2023/08/26 03:34:59;;;;;;;6.20;4.40;;;20.30;99.90;;;;;;2603853;54;20030;31
2023/08/26 03:37:34;;;;;;;4.75;4.00;;;20.30;99.90;;;;;;2603659;54;20027;31
2023/08/26 03:40:10;;;;;;;4.63;3.85;;;20.30;99.90;;;;;;2603653;54;20031;31
2023/08/26 03:42:45;;;;;;;4.75;3.83;;;20.20;99.90;;;;;;2622251;46;20794;31
2023/08/26 03:45:21;;;;;;;5.35;3.17;;;20.20;99.90;;;;;;2603509;54;20052;31
2023/08/26 03:47:56;;;;;;;5.60;3.55;;;20.20;99.90;;;;;;2603464;54;20057;31
2023/08/26 03:50:31;;;;;;;5.10;3.63;;;20.10;99.90;;;;;;2622393;46;19935;31
2023/08/26 03:53:06;;;;;;;6.30;4.25;;;20.10;99.90;;;;;;2603488;54;20894;31
2023/08/26 03:55:41;;;;;;;4.63;3.95;;;20.10;99.90;;;;;;2622215;46;20030;31
2023/08/26 03:58:16;;;;;;;6.43;4.40;;;20.10;99.90;;;;;;2702164;39;20500;31
2023/08/26 04:00:53;;;;;;;6.35;3.85;;;20.00;99.90;;;;;;2603937;54;20027;31
2023/08/26 04:03:28;;;;;;;6.22;4.05;;;20.00;99.90;;;;;;2603397;54;20053;31
2023/08/26 04:06:03;;;;;;;6.35;4.05;;;20.00;99.90;;;;;;2603339;54;20031;31
2023/08/26 04:08:38;;;;;;;5.10;3.40;;;20.00;99.90;;;;;;2603668;54;20051;31
2023/08/26 04:11:15;;;;;;;4.68;3.47;;;20.00;99.90;;;;;;2621802;46;20266;31
2023/08/26 04:13:52;;;;;;;3.15;2.38;;;20.00;99.90;;;;;;2603468;54;20983;31
2023/08/26 04:16:29;;;;;;;4.00;3.07;;;20.10;99.90;;;;;;2603337;54;20033;31
2023/08/26 04:19:05;;;;;;;4.60;3.15;;;20.10;99.90;;;;;;2621703;46;20030;31
2023/08/26 04:21:40;;;;;;;4.10;2.90;;;20.10;99.90;;;;;;2603493;54;20052;31
2023/08/26 04:24:15;;;;;;;3.40;2.80;;;20.10;99.90;;;;;;2622008;46;20270;31
2023/08/26 04:26:49;;;;;;;4.53;2.50;;;20.10;99.90;;;;;;2603503;54;20242;31
2023/08/26 04:29:24;;;;;;;4.15;3.28;;;20.20;99.90;;;;;;2603624;54;20267;31
2023/08/26 04:32:01;;;;;;;5.20;3.10;;;20.20;99.90;;;;;;2603492;54;20049;31
2023/08/26 04:34:36;;;;;;;4.80;3.60;;;20.30;99.90;;;;;;2603538;54;20057;31
2023/08/26 04:37:09;;;;;;;4.17;3.20;;;20.40;99.90;;;;;;2720466;39;21112;31
2023/08/26 04:39:44;;;;;;;4.15;3.28;;;20.50;99.90;;;;;;2603659;54;20030;31
2023/08/26 04:42:18;;;;;;;4.77;3.53;;;20.60;99.90;;;;;;2603600;54;20046;31
2023/08/26 04:44:53;;;;;;;5.25;3.47;;;20.60;99.90;;;;;;2603424;54;20267;31
2023/08/26 04:47:29;;;;;;;5.40;3.40;;;20.70;99.90;;;;;;2603669;54;20851;31
2023/08/26 04:50:04;;;;;;;4.50;3.42;;;20.80;99.90;;;;;;2603373;54;20061;31
2023/08/26 04:52:40;;;;;;;4.65;3.50;;;20.80;99.90;;;;;;2603539;54;20116;31
2023/08/26 04:55:15;;;;;;;6.72;3.38;;;21.00;99.90;;;;;;2603447;54;20104;31
2023/08/26 04:57:50;;;;;;;4.63;3.72;;;21.10;99.90;;;;;;2621570;46;20034;31
2023/08/26 05:00:27;;;;;;;5.18;3.88;;;21.20;99.90;;;;;;2603456;54;19935;31
2023/08/26 05:03:17;;;;;;;5.43;3.17;;;21.30;99.90;;;;;;2773328;31;21694;31
2023/08/26 05:08:38;;;;;;;4.63;2.97;;;21.70;99.90;;;;;;2603409;54;20873;31
2023/08/26 05:11:25;;;;;;;3.08;2.63;;;21.90;99.90;;;;;;2621891;46;20038;31
2023/08/26 05:14:25;;;;;;;3.92;2.70;;;22.00;99.90;;;;;;2603378;54;20044;31
2023/08/26 05:17:27;;;;;;;4.80;2.93;;;22.20;99.90;;;;;;2603305;54;20053;31
2023/08/26 05:20:46;;;;;;;4.43;3.35;;;22.40;99.90;;;;;;2603349;54;20082;31
2023/08/26 05:23:33;;;;;;;6.03;3.08;;;22.70;99.90;;;;;;2603259;54;20049;31
2023/08/26 05:26:27;;;;;;;3.00;2.70;;;22.90;99.90;;;;;;2603554;54;20027;31
2023/08/26 05:33:25;;;;;;;3.43;2.90;;;23.20;99.90;;;;;;2603306;54;20030;31
2023/08/26 05:36:01;;;;;;;4.72;3.40;;;23.20;99.90;;;;;;2603311;54;20034;31
2023/08/26 05:38:36;;;;;;;3.67;2.58;;;23.10;99.90;;;;;;2603310;54;20992;31
2023/08/26 05:41:11;;;;;;;2.95;2.08;;;23.20;99.90;;;;;;2603037;54;20033;31
2023/08/26 05:43:49;;;;;;;4.70;2.80;;;23.20;99.90;;;;;;2603202;54;20022;31
2023/08/26 05:46:24;;;;;;;5.20;2.72;;;23.30;99.90;;;;;;2603446;54;20245;31
2023/08/26 05:48:59;;;;;;;3.25;2.60;;;23.30;99.90;;;;;;2603294;54;20085;31
2023/08/26 05:51:37;;;;;;;3.33;2.57;;;23.40;99.90;;;;;;2603514;54;20902;31
2023/08/26 05:54:12;;;;;;;3.92;2.38;;;23.60;99.90;;;;;;2603276;54;20974;31
2023/08/26 05:56:47;;;;;;;3.20;2.28;;;23.90;99.90;;;;;;2603046;54;20820;31
2023/08/26 05:59:21;;;;;;;3.17;2.30;;;24.20;99.90;;;;;;2603163;54;20103;31
2023/08/26 06:01:56;;;;;;;3.88;2.45;;;24.30;99.90;;;;;;2603138;54;20036;31
2023/08/26 06:04:33;;;;;;;3.35;1.73;;;24.60;99.90;;;;;;2603297;54;20031;31
2023/08/26 06:07:21;;;;;;;3.20;2.20;;;24.90;99.90;;;;;;2603441;54;20022;31
2023/08/26 06:09:55;;;;;;;4.20;1.92;;;25.10;99.90;;;;;;2603377;54;20026;31
2023/08/26 06:12:30;;;;;;;2.95;2.13;;;25.20;99.90;;;;;;2603267;54;20108;31
2023/08/26 06:15:04;;;;;;;2.85;2.00;;;25.30;99.90;;;;;;2603229;54;20037;31
2023/08/26 06:17:41;;;;;;;4.97;1.92;;;25.40;99.90;;;;;;2602888;54;20969;31
2023/08/26 06:20:22;;;;;;;2.55;2.10;;;25.50;99.90;;;;;;2621286;47;20883;31
2023/08/26 06:22:59;;;;;;;4.25;2.30;;;25.80;99.90;;;;;;2602967;54;20027;31
2023/08/26 06:25:35;;;;;;;2.15;1.70;;;25.90;99.90;;;;;;2602852;54;20914;31
2023/08/26 06:28:09;;;;;;;5.32;2.33;;;26.00;99.90;;;;;;2603031;54;20026;31
2023/08/26 06:30:44;;;;;;;2.90;1.60;;;26.00;99.90;;;;;;2603068;54;20049;31
2023/08/26 06:33:23;;;;;;;2.28;1.83;;;26.10;99.90;;;;;;2621504;47;20909;31
2023/08/26 06:35:58;;;;;;;4.65;1.90;;;26.10;99.90;;;;;;2602982;54;20912;31
2023/08/26 06:38:35;;;;;;;;;;;26.10;99.90;;;;;;2603122;54;20780;31
2023/08/26 06:41:10;;;;;;;3.13;1.80;;;26.00;99.90;;;;;;2603918;54;19935;31
2023/08/26 06:43:47;;;;;;;4.10;1.90;;;26.00;99.90;;;;;;2603796;54;20105;31
2023/08/26 06:46:29;;;;;;;3.85;2.00;;;25.90;99.90;;;;;;2603646;54;20250;31
2023/08/26 06:49:04;;;;;;;2.40;1.50;;;25.90;99.90;;;;;;2603760;54;20759;31
2023/08/26 06:51:39;;;;;;;1.73;1.20;;;25.90;99.90;;;;;;2603882;54;21062;31
2023/08/26 06:54:16;;;;;;;2.10;1.27;;;26.00;99.90;;;;;;2603529;54;20031;31
2023/08/26 06:56:51;;;;;;;1.67;1.00;;;26.00;99.90;;;;;;2603627;54;20034;31
2023/08/26 06:59:26;;;;;;;2.07;1.17;;;26.00;99.90;;;;;;2603816;54;20034;31
2023/08/26 07:02:01;;;;;;;1.60;0.97;;;26.00;99.90;;;;;;2621985;46;20923;31
2023/08/26 07:04:36;;;;;;;2.13;1.08;;;26.10;99.90;;;;;;2603483;54;20036;31
2023/08/26 07:07:11;;;;;;;1.65;0.98;;;26.10;99.90;;;;;;2603624;54;20033;31
2023/08/26 07:09:49;;;;;;;2.05;1.05;;;26.10;99.90;;;;;;2603788;54;20030;31
2023/08/26 07:12:24;;;;;;;2.15;1.05;;;26.00;99.90;;;;;;2603560;54;20055;31
2023/08/26 07:15:00;;;;;;;2.03;1.00;;;26.00;99.90;;;;;;2622149;46;20089;31
2023/08/26 07:18:01;;;;;;;4.10;1.23;;;26.00;99.90;;;;;;2603609;54;20903;31
2023/08/26 07:20:39;;;;;;;2.00;1.35;;;26.00;99.90;;;;;;2622320;46;20027;31
2023/08/26 07:23:13;;;;;;;1.40;1.30;;;25.90;99.90;;;;;;2621839;46;20096;31
2023/08/26 07:25:53;;;;;;;1.83;1.30;;;25.90;99.90;;;;;;2603567;54;20030;31
2023/08/26 07:28:30;;;;;;;1.38;1.00;;;25.90;99.90;;;;;;2603505;54;20039;31
2023/08/26 07:31:08;;;;;;;;;;;25.80;99.90;;;;;;2603743;54;20026;31
2023/08/26 07:33:53;;;;;;;2.25;1.20;;;25.80;99.90;;;;;;2622110;46;19934;31
2023/08/26 07:36:32;;;;;;;2.15;1.52;;;25.80;99.90;;;;;;2603410;54;20026;31
2023/08/26 07:39:09;;;;;;;1.77;1.15;;;25.90;99.90;;;;;;2603658;54;20885;31
2023/08/26 07:41:47;;;;;;;1.58;1.10;;;26.10;99.90;;;;;;2621715;46;20092;31
2023/08/26 07:44:23;;;;;;;1.77;1.00;;;26.30;99.90;;;;;;2603438;54;19989;31
2023/08/26 07:49:54;;;;;;;3.05;1.40;;;26.70;99.90;;;;;;2603245;54;20897;31
2023/08/26 07:52:29;;;;;;;;;;;26.80;99.90;;;;;;2622275;47;20915;31
2023/08/26 07:55:03;;;;;;;2.53;1.15;;;26.90;99.90;;;;;;2603724;54;19945;31
2023/08/26 07:57:40;;;;;;;2.40;0.83;;;27.00;99.90;;;;;;2622004;46;20030;31
2023/08/26 08:00:18;;;;;;;1.88;1.13;;;27.10;99.90;;;;;;2603579;54;20845;31
2023/08/26 08:02:51;;;;;;;1.90;1.20;;;27.30;99.90;;;;;;2603726;54;21778;31
2023/08/26 08:05:26;;;;;;;1.50;1.10;;;27.20;99.90;;;;;;2621742;46;20034;31
2023/08/26 08:08:01;;;;;;;1.75;1.15;;;27.10;99.90;;;;;;2603810;54;20838;31
2023/08/26 08:10:36;;;;;;;1.90;1.20;;;27.00;99.90;;;;;;2622183;46;20811;31
2023/08/26 08:13:13;;;;;;;;;;;26.90;99.90;;;;;;2603883;54;20843;31
2023/08/26 08:15:47;;;;;;;;;;;26.80;99.90;;;;;;2622493;46;19993;31
2023/08/26 08:18:22;;;;;;;1.85;1.23;;;26.80;99.90;;;;;;2603594;54;19935;31
2023/08/26 08:20:57;;;;;;;2.97;1.50;;;27.00;99.90;;;;;;2603341;54;20023;31
2023/08/26 08:23:32;;;;;;;1.50;1.00;;;27.20;99.90;;;;;;2621885;46;20034;31
2023/08/26 08:26:07;;;;;;;1.27;1.13;;;27.30;99.90;;;;;;2603599;54;20049;31
2023/08/26 08:28:45;;;;;;;2.40;1.27;;;27.40;99.90;;;;;;2621913;46;20037;31
2023/08/26 08:31:20;;;;;;;1.27;1.00;;;27.70;99.90;;;;;;2603332;54;20026;31
2023/08/26 08:33:55;;;;;;;1.83;1.13;;;27.90;99.90;;;;;;2603486;54;20030;31
2023/08/26 08:36:30;;;;;;;1.92;1.20;;;28.10;99.90;;;;;;2603189;54;20030;31
2023/08/26 08:39:06;;;;;;;1.75;1.33;;;28.20;99.90;;;;;;2621876;46;20038;31
2023/08/26 08:41:40;;;;;;;2.88;1.45;;;28.30;99.90;;;;;;2603702;54;20026;31
2023/08/26 08:44:17;;;;;;;1.85;1.35;;;28.30;99.90;;;;;;2603510;54;20022;31
2023/08/26 08:46:51;;;;;;;1.75;1.20;;;28.20;99.90;;;;;;2603206;54;20030;31
2023/08/26 08:49:26;;;;;;;3.17;1.45;;;28.20;99.90;;;;;;2621750;46;20030;31
2023/08/26 08:52:00;;;;;;;1.77;1.30;;;28.10;99.90;;;;;;2603406;54;20834;31
2023/08/26 08:54:36;;;;;;;1.67;1.27;;;28.00;99.90;;;;;;2603728;54;20046;31
2023/08/26 08:57:09;;;;;;;;;;;27.90;99.90;;;;;;2603686;54;20022;31
2023/08/26 08:59:48;;;;;;;1.43;1.10;;;27.90;99.90;;;;;;2603578;54;19938;31
2023/08/26 09:02:22;;;;;;;2.45;1.65;;;28.00;99.90;;;;;;2621785;46;20892;31
2023/08/26 09:04:57;;;;;;;1.40;1.30;;;28.20;99.90;;;;;;2603495;54;20042;31
2023/08/26 09:07:31;;;;;;;2.33;1.77;;;28.50;99.90;;;;;;2622048;46;20906;31
2023/08/26 09:10:07;;;;;;;2.00;1.52;;;28.60;99.90;;;;;;2622035;46;20915;31
2023/08/26 09:12:39;;;;;;;3.15;1.90;;;28.80;99.90;;;;;;2603240;54;20026;31
2023/08/26 09:15:18;;;;;;;2.67;1.90;;;29.00;99.90;;;;;;2603239;54;20062;31
2023/08/26 09:17:53;;;;;;;1.80;1.48;;;29.10;99.90;;;;;;2603320;54;20049;31
2023/08/26 09:20:29;;;;;;;2.22;1.85;;;29.20;99.90;;;;;;2603278;54;20885;31
2023/08/26 09:23:07;;;;;;;2.50;1.67;;;29.20;99.90;;;;;;2621963;46;20103;31
2023/08/26 09:25:42;;;;;;;2.85;2.10;;;29.30;99.90;;;;;;2603310;54;20053;31
2023/08/26 09:28:17;;;;;;;2.83;2.10;;;29.30;99.90;;;;;;2603311;54;20042;31
2023/08/26 09:31:08;;;;;;;2.00;1.70;;;29.40;99.90;;;;;;2621875;46;20037;31
2023/08/26 09:36:12;;;;;;;2.00;1.80;;;29.70;99.90;;;;;;2603379;54;20026;31
2023/08/26 09:38:50;;;;;;;3.97;1.88;;;29.80;99.90;;;;;;2603127;54;20033;31
2023/08/26 09:41:24;;;;;;;2.47;1.77;;;29.80;99.90;;;;;;2603420;54;20026;31
2023/08/26 09:43:59;;;;;;;4.93;2.50;;;29.90;99.90;;;;;;2603288;54;19935;31
2023/08/26 09:46:37;;;;;;;4.13;1.80;;;29.90;99.90;;;;;;2603401;54;20034;31
2023/08/26 09:49:14;;;;;;;2.60;2.03;;;29.80;99.90;;;;;;2603399;54;20033;31
2023/08/26 09:51:51;;;;;;;2.30;2.00;;;29.70;99.90;;;;;;2603396;54;20026;31
2023/08/26 09:54:25;;;;;;;3.13;1.70;;;29.60;99.90;;;;;;2603385;54;20030;31
2023/08/26 09:56:58;;;;;;;3.43;1.83;;;29.60;99.90;;;;;;2702030;39;20980;31
2023/08/26 09:59:32;;;;;;;2.20;1.63;;;29.80;99.90;;;;;;2603385;54;20026;31
2023/08/26 10:02:15;;;;;;;2.10;1.80;;;29.80;99.90;;;;;;2621631;46;20119;31
2023/08/26 10:04:50;;;;;;;2.83;2.00;;;29.70;99.90;;;;;;2603098;54;20029;31
2023/08/26 10:07:25;;;;;;;2.40;1.63;;;29.70;99.90;;;;;;2603013;54;20022;31
2023/08/26 10:10:00;;;;;;;2.40;2.00;;;29.60;99.90;;;;;;2603115;54;20058;31
2023/08/26 10:12:39;;;;;;;2.27;1.90;;;29.60;99.90;;;;;;2603273;54;20847;31
2023/08/26 10:15:15;;;;;;;2.50;1.65;;;29.60;99.90;;;;;;2622248;46;20026;31
2023/08/26 10:17:52;;;;;;;2.00;1.80;;;29.70;99.90;;;;;;2604078;54;20031;31
2023/08/26 10:20:27;;;;;;;2.10;1.90;;;29.80;99.90;;;;;;2603956;54;20030;31
2023/08/26 10:23:03;;;;;;;2.60;1.80;;;29.80;99.90;;;;;;2604079;54;20905;31
2023/08/26 10:25:39;;;;;;;2.55;2.05;;;29.90;99.90;;;;;;2622457;46;20036;31
2023/08/26 10:28:14;;;;;;;2.10;1.75;;;29.90;99.90;;;;;;2622241;46;20037;31
2023/08/26 10:30:50;;;;;;;2.40;2.00;;;29.80;99.90;;;;;;2603871;54;20966;31
2023/08/26 10:33:28;;;;;;;3.97;1.85;;;29.70;99.90;;;;;;2603897;54;20169;31
2023/08/26 10:36:15;;;;;;;2.60;1.80;;;29.60;99.90;;;;;;2603913;54;20089;31
2023/08/26 10:38:58;;;;;;;1.83;1.40;;;29.50;99.90;;;;;;2603992;54;20034;31
2023/08/26 10:41:34;;;;;;;3.50;1.60;;;29.60;99.90;;;;;;2603810;54;20907;31
2023/08/26 10:44:09;;;;;;;2.92;1.67;;;29.60;99.90;;;;;;2603834;54;20879;31
2023/08/26 10:46:58;;;;;;;2.05;1.58;;;29.50;99.90;;;;;;2603741;54;20030;31
2023/08/26 10:49:36;;;;;;;1.73;1.50;;;29.40;99.90;;;;;;2603736;54;20091;31
2023/08/26 10:52:17;;;;;;;3.22;1.92;;;29.30;99.90;;;;;;2603807;54;20793;31
2023/08/26 10:54:52;;;;;;;3.03;1.67;;;29.20;99.90;;;;;;2603841;54;20037;31
2023/08/26 10:57:26;;;;;;;1.50;1.30;;;29.00;99.90;;;;;;2603808;54;20030;31
2023/08/26 11:00:01;;;;;;;1.67;1.37;;;28.90;99.90;;;;;;2622428;46;20054;31
2023/08/26 11:02:36;;;;;;;2.00;1.60;;;28.80;99.90;;;;;;2603903;54;20104;31
2023/08/26 11:05:14;;;;;;;2.70;1.40;;;28.60;99.90;;;;;;2622138;46;20828;31
2023/08/26 11:07:49;;;;;;;2.25;1.95;;;28.50;99.90;;;;;;2603758;54;20813;31
2023/08/26 11:10:28;;;;;;;2.78;1.67;;;28.40;99.90;;;;;;2622140;46;20818;31
2023/08/26 11:13:03;;;;;;;3.05;1.25;;;28.30;99.90;;;;;;2603869;54;20085;31
2023/08/26 11:15:38;;;;;;;1.67;1.23;;;28.30;99.90;;;;;;2621970;46;20023;31
2023/08/26 11:18:13;;;;;;;2.55;1.55;;;28.30;99.90;;;;;;2603668;54;20031;31
2023/08/26 11:20:51;;;;;;;2.13;1.52;;;28.30;99.90;;;;;;2622357;46;20033;31
2023/08/26 11:23:27;;;;;;;1.95;1.38;;;28.20;99.90;;;;;;2622122;46;20031;31
2023/08/26 11:26:03;;;;;;;2.00;1.60;;;28.20;99.90;;;;;;2621762;46;20057;31
2023/08/26 11:28:37;;;;;;;1.70;1.55;;;28.00;99.90;;;;;;2621930;46;21003;31
2023/08/26 11:31:11;;;;;;;2.00;1.60;;;27.90;99.90;;;;;;2603772;54;20026;31
2023/08/26 11:33:46;;;;;;;2.60;1.60;;;27.80;99.90;;;;;;2603659;54;20265;31
2023/08/26 11:36:26;;;;;;;2.45;1.73;;;27.70;99.90;;;;;;2603668;54;20057;31
2023/08/26 11:39:01;;;;;;;2.20;1.48;;;27.60;99.90;;;;;;2603737;54;20100;31
2023/08/26 11:41:35;;;;;;;2.70;1.70;;;27.50;99.90;;;;;;2621947;46;20089;31
2023/08/26 11:44:16;;;;;;;2.03;1.52;;;27.50;99.90;;;;;;2603593;54;20961;31
2023/08/26 11:46:53;;;;;;;2.15;1.70;;;27.40;99.90;;;;;;2603601;54;20038;31
2023/08/26 11:49:28;;;;;;;2.33;1.60;;;27.40;99.90;;;;;;2621964;46;20030;31
2023/08/26 11:52:05;;;;;;;2.73;1.90;;;27.40;99.90;;;;;;2603803;54;20026;31
2023/08/26 11:54:40;;;;;;;2.97;1.90;;;27.30;99.90;;;;;;2603614;54;20022;31
2023/08/26 11:57:15;;;;;;;2.60;1.70;;;27.40;99.90;;;;;;2603673;54;20057;31
2023/08/26 11:59:49;;;;;;;;;;;27.40;99.90;;;;;;2622689;46;20077;31
2023/08/26 12:02:25;;;;;;;2.70;1.70;;;27.50;99.90;;;;;;2603793;54;19935;31
2023/08/26 12:04:59;;;;;;;;;;;27.60;99.90;;;;;;2603681;54;20087;31
2023/08/26 12:07:36;;;;;;;2.50;1.50;;;27.60;99.90;;;;;;2603543;54;20762;31
2023/08/26 12:10:12;;;;;;;2.40;1.60;;;27.70;99.90;;;;;;2622070;46;20023;31
2023/08/26 12:12:46;;;;;;;1.73;1.40;;;27.90;99.90;;;;;;2603620;54;20052;31
2023/08/26 12:15:20;;;;;;;4.07;1.90;;;28.00;99.90;;;;;;2603701;54;20887;31
2023/08/26 12:17:58;;;;;;;2.42;1.60;;;28.20;99.90;;;;;;2603517;54;20034;31
2023/08/26 12:20:34;;;;;;;2.55;1.80;;;28.40;99.90;;;;;;2603458;54;20801;31
2023/08/26 12:23:11;;;;;;;2.30;2.10;;;28.50;99.90;;;;;;2603617;54;20886;31
2023/08/26 12:25:45;;;;;;;1.27;1.17;;;28.60;99.90;;;;;;2622065;46;20068;31
2023/08/26 12:28:23;;;;;;;1.98;1.50;;;28.80;99.90;;;;;;2621753;46;20887;31
2023/08/26 12:30:57;;;;;;;3.10;1.52;;;29.00;99.90;;;;;;2603670;54;20026;31
2023/08/26 12:33:32;;;;;;;2.15;1.60;;;29.10;99.90;;;;;;2603484;54;20049;31
2023/08/26 12:36:13;;;;;;;1.80;1.40;;;29.20;99.90;;;;;;2603725;54;20033;31
2023/08/26 12:38:51;;;;;;;3.53;1.55;;;29.30;99.90;;;;;;2603388;54;20100;31
2023/08/26 12:41:25;;;;;;;1.95;1.45;;;29.40;99.90;;;;;;2603650;54;20112;31
2023/08/26 12:43:59;;;;;;;1.80;1.48;;;29.40;99.90;;;;;;2603349;54;20049;31
2023/08/26 12:46:34;;;;;;;2.67;1.37;;;29.50;99.90;;;;;;2603462;54;20045;31
2023/08/26 12:49:09;;;;;;;2.05;1.80;;;29.50;99.90;;;;;;2622211;46;20023;31
2023/08/26 12:51:59;;;;;;;2.25;1.70;;;29.60;99.90;;;;;;2621947;46;20054;31
2023/08/26 12:54:37;;;;;;;2.13;1.52;;;29.70;99.90;;;;;;2603560;54;20100;31
2023/08/26 12:57:12;;;;;;;1.98;1.60;;;29.70;99.90;;;;;;2603093;54;20034;31
2023/08/26 12:59:48;;;;;;;2.20;1.50;;;29.70;99.90;;;;;;2603355;54;20801;31
2023/08/26 13:02:23;;;;;;;2.15;1.40;;;29.70;99.90;;;;;;2603496;54;20835;31
2023/08/26 13:04:58;;;;;;;1.80;1.70;;;29.80;99.90;;;;;;2603418;54;20053;31
2023/08/26 13:07:33;;;;;;;1.73;1.50;;;29.80;99.90;;;;;;2621825;46;20053;31
2023/08/26 13:10:11;;;;;;;5.35;1.90;;;29.80;99.90;;;;;;2621605;46;20949;31
2023/08/26 13:12:45;;;;;;;2.20;1.75;;;29.80;99.90;;;;;;2701940;39;21646;31
2023/08/26 13:15:20;;;;;;;1.70;1.57;;;29.80;99.90;;;;;;2603527;54;20903;31
2023/08/26 13:17:55;;;;;;;2.03;1.42;;;29.70;99.90;;;;;;2603199;54;20030;31
2023/08/26 13:20:31;;;;;;;1.17;0.97;;;29.80;99.90;;;;;;2603451;54;20030;31
2023/08/26 13:23:05;;;;;;;1.55;1.10;;;29.80;99.90;;;;;;2603344;54;20026;31
2023/08/26 13:25:42;;;;;;;2.30;1.30;;;29.90;99.90;;;;;;2603356;54;20057;31
2023/08/26 13:28:17;;;;;;;1.38;1.13;;;29.90;99.90;;;;;;2603432;54;20069;31
2023/08/26 13:30:54;;;;;;;1.97;1.70;;;29.90;99.90;;;;;;2603261;54;20103;31
2023/08/26 13:33:28;;;;;;;2.70;1.65;;;29.90;99.90;;;;;;2603141;54;20160;31
2023/08/26 13:36:02;;;;;;;1.67;1.48;;;29.90;99.90;;;;;;2603437;54;20039;31
2023/08/26 13:38:37;;;;;;;2.17;1.50;;;29.80;99.90;;;;;;2603186;54;20032;31
2023/08/26 13:41:14;;;;;;;1.73;1.38;;;29.80;99.90;;;;;;2603217;54;20038;31
2023/08/26 13:43:48;;;;;;;1.90;1.10;;;29.70;99.90;;;;;;2603409;54;20832;31
2023/08/26 13:46:23;;;;;;;2.92;1.55;;;29.60;99.90;;;;;;2603106;54;20063;31
2023/08/26 13:49:00;;;;;;;1.30;1.10;;;29.50;99.90;;;;;;2621317;46;20023;31
2023/08/26 13:51:35;;;;;;;1.83;1.23;;;29.50;99.90;;;;;;2621667;46;20038;31
2023/08/26 13:54:09;;;;;;;2.00;1.30;;;29.50;99.90;;;;;;2603200;54;20372;31
2023/08/26 13:56:47;;;;;;;1.20;1.10;;;29.60;99.90;;;;;;2603340;54;20147;31
2023/08/26 13:59:21;;;;;;;1.23;0.83;;;29.50;99.90;;;;;;2603138;54;20773;31